sensor_id;sensor_type;location;lat;lon;timestamp;P1;durP1;ratioP1;P2;durP2;ratioP2
16593;SDS011;8410;52.532;13.336;2023-08-31T00:01:46;14.37;;;13.03;;
16593;SDS011;8410;52.532;13.336;2023-08-31T00:04:14;4.63;;;3.23;;
16593;SDS011;8410;52.532;13.336;2023-08-31T00:06:42;4.03;;;3.00;;
16593;SDS011;8410;52.532;13.336;2023-08-31T00:09:11;5.90;;;4.23;;
16593;SDS011;8410;52.532;13.336;2023-08-31T00:11:38;4.83;;;4.17;;
16593;SDS011;8410;52.532;13.336;2023-08-31T00:14:07;3.83;;;3.00;;
16593;SDS011;8410;52.532;13.336;2023-08-31T00:16:35;3.90;;;3.50;;
16593;SDS011;8410;52.532;13.336;2023-08-31T00:19:03;4.77;;;3.53;;
16593;SDS011;8410;52.532;13.336;2023-08-31T00:21:31;9.90;;;8.90;;
16593;SDS011;8410;52.532;13.336;2023-08-31T00:23:59;4.07;;;3.67;;
16593;SDS011;8410;52.532;13.336;2023-08-31T00:26:26;4.37;;;3.47;;
16593;SDS011;8410;52.532;13.336;2023-08-31T00:28:55;3.13;;;2.83;;
16593;SDS011;8410;52.532;13.336;2023-08-31T00:31:24;4.57;;;4.10;;
16593;SDS011;8410;52.532;13.336;2023-08-31T00:33:53;4.10;;;3.13;;
16593;SDS011;8410;52.532;13.336;2023-08-31T00:36:22;4.13;;;3.73;;
16593;SDS011;8410;52.532;13.336;2023-08-31T00:38:49;4.33;;;3.93;;
16593;SDS011;8410;52.532;13.336;2023-08-31T00:41:17;5.37;;;4.87;;
16593;SDS011;8410;52.532;13.336;2023-08-31T00:43:44;10.37;;;9.37;;
16593;SDS011;8410;52.532;13.336;2023-08-31T00:46:12;8.10;;;7.40;;
16593;SDS011;8410;52.532;13.336;2023-08-31T00:48:42;3.87;;;3.57;;
16593;SDS011;8410;52.532;13.336;2023-08-31T00:51:10;3.77;;;3.33;;
16593;SDS011;8410;52.532;13.336;2023-08-31T00:53:38;3.20;;;3.00;;
16593;SDS011;8410;52.532;13.336;2023-08-31T00:56:05;6.50;;;3.37;;
16593;SDS011;8410;52.532;13.336;2023-08-31T00:58:33;3.80;;;3.50;;
16593;SDS011;8410;52.532;13.336;2023-08-31T01:01:05;4.10;;;3.40;;
16593;SDS011;8410;52.532;13.336;2023-08-31T01:03:40;4.47;;;3.97;;
16593;SDS011;8410;52.532;13.336;2023-08-31T01:06:16;4.10;;;3.70;;
16593;SDS011;8410;52.532;13.336;2023-08-31T01:08:50;4.10;;;3.80;;
16593;SDS011;8410;52.532;13.336;2023-08-31T01:11:24;4.60;;;4.20;;
16593;SDS011;8410;52.532;13.336;2023-08-31T01:14:00;4.57;;;4.17;;
16593;SDS011;8410;52.532;13.336;2023-08-31T01:16:30;4.93;;;4.47;;
16593;SDS011;8410;52.532;13.336;2023-08-31T01:19:04;4.63;;;4.23;;
16593;SDS011;8410;52.532;13.336;2023-08-31T01:21:37;5.00;;;4.60;;
16593;SDS011;8410;52.532;13.336;2023-08-31T01:24:08;4.73;;;4.43;;
16593;SDS011;8410;52.532;13.336;2023-08-31T01:26:37;4.90;;;4.50;;
16593;SDS011;8410;52.532;13.336;2023-08-31T01:29:07;4.70;;;4.33;;
16593;SDS011;8410;52.532;13.336;2023-08-31T01:31:41;4.20;;;3.90;;
16593;SDS011;8410;52.532;13.336;2023-08-31T01:34:09;4.30;;;4.00;;
16593;SDS011;8410;52.532;13.336;2023-08-31T01:36:36;4.30;;;3.90;;
16593;SDS011;8410;52.532;13.336;2023-08-31T01:39:13;4.00;;;3.70;;
16593;SDS011;8410;52.532;13.336;2023-08-31T01:41:46;3.77;;;3.47;;
16593;SDS011;8410;52.532;13.336;2023-08-31T01:44:18;3.67;;;3.27;;
16593;SDS011;8410;52.532;13.336;2023-08-31T01:46:46;3.53;;;3.33;;
16593;SDS011;8410;52.532;13.336;2023-08-31T01:49:19;3.40;;;3.20;;
16593;SDS011;8410;52.532;13.336;2023-08-31T01:51:46;3.67;;;3.00;;
16593;SDS011;8410;52.532;13.336;2023-08-31T01:54:15;3.53;;;3.23;;
16593;SDS011;8410;52.532;13.336;2023-08-31T01:56:43;3.23;;;2.93;;
16593;SDS011;8410;52.532;13.336;2023-08-31T01:59:10;3.80;;;3.50;;
16593;SDS011;8410;52.532;13.336;2023-08-31T02:01:38;3.07;;;2.87;;
16593;SDS011;8410;52.532;13.336;2023-08-31T02:04:06;2.70;;;2.50;;
16593;SDS011;8410;52.532;13.336;2023-08-31T02:06:34;2.90;;;2.60;;
16593;SDS011;8410;52.532;13.336;2023-08-31T02:09:01;2.60;;;2.40;;
16593;SDS011;8410;52.532;13.336;2023-08-31T02:11:30;2.30;;;2.20;;
16593;SDS011;8410;52.532;13.336;2023-08-31T02:13:57;2.60;;;2.40;;
16593;SDS011;8410;52.532;13.336;2023-08-31T02:16:25;2.40;;;2.20;;
16593;SDS011;8410;52.532;13.336;2023-08-31T02:18:52;2.50;;;2.30;;
16593;SDS011;8410;52.532;13.336;2023-08-31T02:21:20;2.80;;;2.60;;
16593;SDS011;8410;52.532;13.336;2023-08-31T02:23:49;2.60;;;2.40;;
16593;SDS011;8410;52.532;13.336;2023-08-31T02:26:16;2.53;;;2.33;;
16593;SDS011;8410;52.532;13.336;2023-08-31T02:28:45;3.10;;;2.80;;
16593;SDS011;8410;52.532;13.336;2023-08-31T02:31:13;2.90;;;2.70;;
16593;SDS011;8410;52.532;13.336;2023-08-31T02:33:41;2.50;;;2.30;;
16593;SDS011;8410;52.532;13.336;2023-08-31T02:36:08;2.57;;;2.37;;
16593;SDS011;8410;52.532;13.336;2023-08-31T02:38:36;2.80;;;2.60;;
16593;SDS011;8410;52.532;13.336;2023-08-31T02:41:03;3.03;;;2.73;;
16593;SDS011;8410;52.532;13.336;2023-08-31T02:43:31;3.43;;;2.70;;
16593;SDS011;8410;52.532;13.336;2023-08-31T02:46:00;2.90;;;2.70;;
16593;SDS011;8410;52.532;13.336;2023-08-31T02:48:28;2.80;;;2.60;;
16593;SDS011;8410;52.532;13.336;2023-08-31T02:50:57;3.30;;;2.83;;
16593;SDS011;8410;52.532;13.336;2023-08-31T02:53:24;3.13;;;2.83;;
16593;SDS011;8410;52.532;13.336;2023-08-31T02:55:52;2.90;;;2.70;;
16593;SDS011;8410;52.532;13.336;2023-08-31T02:58:19;2.60;;;2.40;;
16593;SDS011;8410;52.532;13.336;2023-08-31T03:00:47;3.10;;;2.80;;
16593;SDS011;8410;52.532;13.336;2023-08-31T03:03:16;2.60;;;2.40;;
16593;SDS011;8410;52.532;13.336;2023-08-31T03:05:45;2.93;;;2.70;;
16593;SDS011;8410;52.532;13.336;2023-08-31T03:08:12;2.70;;;2.50;;
16593;SDS011;8410;52.532;13.336;2023-08-31T03:10:40;2.57;;;2.37;;
16593;SDS011;8410;52.532;13.336;2023-08-31T03:13:08;2.50;;;2.30;;
16593;SDS011;8410;52.532;13.336;2023-08-31T03:15:36;2.77;;;2.20;;
16593;SDS011;8410;52.532;13.336;2023-08-31T03:18:03;2.73;;;2.53;;
16593;SDS011;8410;52.532;13.336;2023-08-31T03:20:32;2.50;;;2.30;;
16593;SDS011;8410;52.532;13.336;2023-08-31T03:23:00;2.80;;;2.47;;
16593;SDS011;8410;52.532;13.336;2023-08-31T03:25:28;3.03;;;2.20;;
16593;SDS011;8410;52.532;13.336;2023-08-31T03:27:55;2.27;;;2.07;;
16593;SDS011;8410;52.532;13.336;2023-08-31T03:30:22;2.93;;;2.50;;
16593;SDS011;8410;52.532;13.336;2023-08-31T03:32:50;2.20;;;2.10;;
16593;SDS011;8410;52.532;13.336;2023-08-31T03:35:18;2.50;;;2.30;;
16593;SDS011;8410;52.532;13.336;2023-08-31T03:37:47;2.90;;;2.53;;
16593;SDS011;8410;52.532;13.336;2023-08-31T03:40:15;2.87;;;2.67;;
16593;SDS011;8410;52.532;13.336;2023-08-31T03:42:43;3.30;;;3.00;;
16593;SDS011;8410;52.532;13.336;2023-08-31T03:45:10;2.80;;;2.60;;
16593;SDS011;8410;52.532;13.336;2023-08-31T03:47:38;2.80;;;2.60;;
16593;SDS011;8410;52.532;13.336;2023-08-31T03:50:06;3.00;;;2.77;;
16593;SDS011;8410;52.532;13.336;2023-08-31T03:52:35;3.03;;;2.83;;
16593;SDS011;8410;52.532;13.336;2023-08-31T03:55:04;3.10;;;2.80;;
16593;SDS011;8410;52.532;13.336;2023-08-31T03:57:32;3.23;;;2.93;;
16593;SDS011;8410;52.532;13.336;2023-08-31T03:59:59;3.60;;;3.30;;
16593;SDS011;8410;52.532;13.336;2023-08-31T04:02:27;3.87;;;3.47;;
16593;SDS011;8410;52.532;13.336;2023-08-31T04:04:55;4.23;;;3.90;;
16593;SDS011;8410;52.532;13.336;2023-08-31T04:07:22;4.50;;;4.10;;
16593;SDS011;8410;52.532;13.336;2023-08-31T04:09:50;4.50;;;4.10;;
16593;SDS011;8410;52.532;13.336;2023-08-31T04:12:19;4.50;;;4.10;;
16593;SDS011;8410;52.532;13.336;2023-08-31T04:14:46;5.20;;;4.80;;
16593;SDS011;8410;52.532;13.336;2023-08-31T04:17:13;5.00;;;4.37;;
16593;SDS011;8410;52.532;13.336;2023-08-31T04:19:41;4.50;;;4.17;;
16593;SDS011;8410;52.532;13.336;2023-08-31T04:22:08;5.80;;;5.17;;
16593;SDS011;8410;52.532;13.336;2023-08-31T04:24:36;8.20;;;4.80;;
16593;SDS011;8410;52.532;13.336;2023-08-31T04:27:04;5.80;;;5.30;;
16593;SDS011;8410;52.532;13.336;2023-08-31T04:29:33;5.50;;;5.00;;
16593;SDS011;8410;52.532;13.336;2023-08-31T04:32:00;5.63;;;5.13;;
16593;SDS011;8410;52.532;13.336;2023-08-31T04:34:28;5.73;;;5.30;;
16593;SDS011;8410;52.532;13.336;2023-08-31T04:36:55;7.93;;;5.67;;
16593;SDS011;8410;52.532;13.336;2023-08-31T04:39:22;8.07;;;7.30;;
16593;SDS011;8410;52.532;13.336;2023-08-31T04:41:50;6.97;;;6.37;;
16593;SDS011;8410;52.532;13.336;2023-08-31T04:44:17;15.87;;;14.30;;
16593;SDS011;8410;52.532;13.336;2023-08-31T04:46:46;6.73;;;6.13;;
16593;SDS011;8410;52.532;13.336;2023-08-31T04:49:14;8.80;;;8.00;;
16593;SDS011;8410;52.532;13.336;2023-08-31T04:51:43;7.60;;;6.90;;
16593;SDS011;8410;52.532;13.336;2023-08-31T04:54:11;7.40;;;6.70;;
16593;SDS011;8410;52.532;13.336;2023-08-31T04:56:40;7.40;;;6.77;;
16593;SDS011;8410;52.532;13.336;2023-08-31T04:59:08;7.80;;;7.10;;
16593;SDS011;8410;52.532;13.336;2023-08-31T05:01:35;6.73;;;6.10;;
16593;SDS011;8410;52.532;13.336;2023-08-31T05:04:04;7.77;;;6.97;;
16593;SDS011;8410;52.532;13.336;2023-08-31T05:06:32;6.90;;;6.20;;
16593;SDS011;8410;52.532;13.336;2023-08-31T05:08:59;7.50;;;6.90;;
16593;SDS011;8410;52.532;13.336;2023-08-31T05:11:27;7.90;;;7.13;;
16593;SDS011;8410;52.532;13.336;2023-08-31T05:13:55;7.90;;;7.20;;
16593;SDS011;8410;52.532;13.336;2023-08-31T05:16:22;7.10;;;6.50;;
16593;SDS011;8410;52.532;13.336;2023-08-31T05:18:50;7.37;;;6.77;;
16593;SDS011;8410;52.532;13.336;2023-08-31T05:21:19;7.20;;;6.23;;
16593;SDS011;8410;52.532;13.336;2023-08-31T05:23:46;9.73;;;7.97;;
16593;SDS011;8410;52.532;13.336;2023-08-31T05:26:14;8.17;;;7.43;;
16593;SDS011;8410;52.532;13.336;2023-08-31T05:28:42;8.50;;;7.50;;
16593;SDS011;8410;52.532;13.336;2023-08-31T05:31:09;8.37;;;7.67;;
16593;SDS011;8410;52.532;13.336;2023-08-31T05:33:37;9.03;;;7.37;;
16593;SDS011;8410;52.532;13.336;2023-08-31T05:36:04;7.80;;;7.20;;
16593;SDS011;8410;52.532;13.336;2023-08-31T05:38:34;8.90;;;7.77;;
16593;SDS011;8410;52.532;13.336;2023-08-31T05:41:08;8.40;;;7.67;;
16593;SDS011;8410;52.532;13.336;2023-08-31T05:43:36;7.77;;;7.07;;
16593;SDS011;8410;52.532;13.336;2023-08-31T05:46:06;8.57;;;7.77;;
16593;SDS011;8410;52.532;13.336;2023-08-31T05:48:34;9.13;;;8.23;;
16593;SDS011;8410;52.532;13.336;2023-08-31T05:51:02;8.83;;;8.07;;
16593;SDS011;8410;52.532;13.336;2023-08-31T05:53:30;8.53;;;7.87;;
16593;SDS011;8410;52.532;13.336;2023-08-31T05:55:59;8.43;;;7.63;;
16593;SDS011;8410;52.532;13.336;2023-08-31T05:58:31;9.40;;;8.60;;
16593;SDS011;8410;52.532;13.336;2023-08-31T06:01:00;8.57;;;7.67;;
16593;SDS011;8410;52.532;13.336;2023-08-31T06:03:28;8.77;;;7.87;;
16593;SDS011;8410;52.532;13.336;2023-08-31T06:05:57;8.97;;;8.07;;
16593;SDS011;8410;52.532;13.336;2023-08-31T06:08:25;9.37;;;8.47;;
16593;SDS011;8410;52.532;13.336;2023-08-31T06:10:53;11.27;;;10.03;;
16593;SDS011;8410;52.532;13.336;2023-08-31T06:13:22;9.80;;;8.80;;
16593;SDS011;8410;52.532;13.336;2023-08-31T06:15:50;8.27;;;7.47;;
16593;SDS011;8410;52.532;13.336;2023-08-31T06:18:17;10.43;;;9.43;;
16593;SDS011;8410;52.532;13.336;2023-08-31T06:20:45;8.60;;;7.70;;
16593;SDS011;8410;52.532;13.336;2023-08-31T06:23:14;14.67;;;13.37;;
16593;SDS011;8410;52.532;13.336;2023-08-31T06:25:42;8.43;;;7.73;;
16593;SDS011;8410;52.532;13.336;2023-08-31T06:28:11;8.60;;;7.43;;
16593;SDS011;8410;52.532;13.336;2023-08-31T06:30:41;9.10;;;8.20;;
16593;SDS011;8410;52.532;13.336;2023-08-31T06:33:12;8.53;;;7.77;;
16593;SDS011;8410;52.532;13.336;2023-08-31T06:35:41;14.03;;;12.63;;
16593;SDS011;8410;52.532;13.336;2023-08-31T06:38:08;8.77;;;7.97;;
16593;SDS011;8410;52.532;13.336;2023-08-31T06:40:36;9.10;;;8.17;;
16593;SDS011;8410;52.532;13.336;2023-08-31T06:43:04;7.57;;;6.87;;
16593;SDS011;8410;52.532;13.336;2023-08-31T06:45:31;7.90;;;7.10;;
16593;SDS011;8410;52.532;13.336;2023-08-31T06:48:02;7.87;;;7.13;;
16593;SDS011;8410;52.532;13.336;2023-08-31T06:50:30;8.77;;;7.00;;
16593;SDS011;8410;52.532;13.336;2023-08-31T06:53:00;8.83;;;7.53;;
16593;SDS011;8410;52.532;13.336;2023-08-31T06:55:27;8.50;;;7.70;;
16593;SDS011;8410;52.532;13.336;2023-08-31T06:57:55;8.27;;;7.47;;
16593;SDS011;8410;52.532;13.336;2023-08-31T07:00:23;7.97;;;7.17;;
16593;SDS011;8410;52.532;13.336;2023-08-31T07:02:50;8.50;;;7.03;;
16593;SDS011;8410;52.532;13.336;2023-08-31T07:05:24;8.07;;;6.97;;
16593;SDS011;8410;52.532;13.336;2023-08-31T07:07:53;7.50;;;6.67;;
16593;SDS011;8410;52.532;13.336;2023-08-31T07:10:20;7.37;;;6.67;;
16593;SDS011;8410;52.532;13.336;2023-08-31T07:12:48;9.23;;;6.07;;
16593;SDS011;8410;52.532;13.336;2023-08-31T07:15:16;7.20;;;5.80;;
16593;SDS011;8410;52.532;13.336;2023-08-31T07:17:43;6.77;;;6.03;;
16593;SDS011;8410;52.532;13.336;2023-08-31T07:20:11;7.53;;;5.43;;
16593;SDS011;8410;52.532;13.336;2023-08-31T07:22:40;6.07;;;5.47;;
16593;SDS011;8410;52.532;13.336;2023-08-31T07:25:08;8.37;;;5.37;;
16593;SDS011;8410;52.532;13.336;2023-08-31T07:27:40;8.02;;;5.53;;
16593;SDS011;8410;52.532;13.336;2023-08-31T07:30:08;6.17;;;5.53;;
16593;SDS011;8410;52.532;13.336;2023-08-31T07:32:37;5.87;;;5.23;;
16593;SDS011;8410;52.532;13.336;2023-08-31T07:35:05;7.40;;;5.27;;
16593;SDS011;8410;52.532;13.336;2023-08-31T07:37:32;8.13;;;5.43;;
16593;SDS011;8410;52.532;13.336;2023-08-31T07:40:02;5.43;;;4.93;;
16593;SDS011;8410;52.532;13.336;2023-08-31T07:42:34;5.13;;;4.63;;
16593;SDS011;8410;52.532;13.336;2023-08-31T07:45:02;6.83;;;4.57;;
16593;SDS011;8410;52.532;13.336;2023-08-31T07:47:29;6.17;;;4.70;;
16593;SDS011;8410;52.532;13.336;2023-08-31T07:49:58;7.57;;;4.80;;
16593;SDS011;8410;52.532;13.336;2023-08-31T07:52:25;6.37;;;4.10;;
16593;SDS011;8410;52.532;13.336;2023-08-31T07:54:53;4.50;;;4.10;;
16593;SDS011;8410;52.532;13.336;2023-08-31T07:57:22;5.57;;;4.97;;
16593;SDS011;8410;52.532;13.336;2023-08-31T07:59:50;4.77;;;4.30;;
16593;SDS011;8410;52.532;13.336;2023-08-31T08:02:20;4.47;;;4.00;;
16593;SDS011;8410;52.532;13.336;2023-08-31T08:04:48;4.57;;;3.50;;
16593;SDS011;8410;52.532;13.336;2023-08-31T08:07:15;5.80;;;4.00;;
16593;SDS011;8410;52.532;13.336;2023-08-31T08:09:43;6.70;;;3.70;;
16593;SDS011;8410;52.532;13.336;2023-08-31T08:12:10;6.00;;;3.63;;
16593;SDS011;8410;52.532;13.336;2023-08-31T08:14:39;4.43;;;3.10;;
16593;SDS011;8410;52.532;13.336;2023-08-31T08:17:07;3.87;;;3.37;;
16593;SDS011;8410;52.532;13.336;2023-08-31T08:19:34;5.67;;;2.93;;
16593;SDS011;8410;52.532;13.336;2023-08-31T08:22:02;4.70;;;3.13;;
16593;SDS011;8410;52.532;13.336;2023-08-31T08:24:30;5.77;;;3.43;;
16593;SDS011;8410;52.532;13.336;2023-08-31T08:26:57;5.17;;;3.37;;
16593;SDS011;8410;52.532;13.336;2023-08-31T08:29:25;4.60;;;2.80;;
16593;SDS011;8410;52.532;13.336;2023-08-31T08:31:54;3.50;;;2.40;;
16593;SDS011;8410;52.532;13.336;2023-08-31T08:34:21;4.03;;;2.80;;
16593;SDS011;8410;52.532;13.336;2023-08-31T08:36:49;4.63;;;2.70;;
16593;SDS011;8410;52.532;13.336;2023-08-31T08:39:16;3.23;;;2.40;;
16593;SDS011;8410;52.532;13.336;2023-08-31T08:41:44;3.63;;;2.17;;
16593;SDS011;8410;52.532;13.336;2023-08-31T08:44:12;3.73;;;2.30;;
16593;SDS011;8410;52.532;13.336;2023-08-31T08:46:42;3.67;;;2.00;;
16593;SDS011;8410;52.532;13.336;2023-08-31T08:49:13;3.47;;;1.70;;
16593;SDS011;8410;52.532;13.336;2023-08-31T08:51:42;2.67;;;1.73;;
16593;SDS011;8410;52.532;13.336;2023-08-31T08:54:10;2.30;;;1.65;;
16593;SDS011;8410;52.532;13.336;2023-08-31T08:56:37;4.27;;;1.73;;
16593;SDS011;8410;52.532;13.336;2023-08-31T08:59:05;3.17;;;2.10;;
16593;SDS011;8410;52.532;13.336;2023-08-31T09:01:33;3.83;;;2.20;;
16593;SDS011;8410;52.532;13.336;2023-08-31T09:04:02;2.10;;;1.73;;
16593;SDS011;8410;52.532;13.336;2023-08-31T09:06:31;4.03;;;1.97;;
16593;SDS011;8410;52.532;13.336;2023-08-31T09:08:59;4.80;;;2.10;;
16593;SDS011;8410;52.532;13.336;2023-08-31T09:11:27;3.97;;;1.60;;
16593;SDS011;8410;52.532;13.336;2023-08-31T09:13:54;4.70;;;1.60;;
16593;SDS011;8410;52.532;13.336;2023-08-31T09:18:54;4.33;;;1.63;;
16593;SDS011;8410;52.532;13.336;2023-08-31T09:21:22;4.10;;;1.43;;
16593;SDS011;8410;52.532;13.336;2023-08-31T09:23:56;4.90;;;1.60;;
16593;SDS011;8410;52.532;13.336;2023-08-31T09:26:24;4.50;;;2.07;;
16593;SDS011;8410;52.532;13.336;2023-08-31T09:28:51;2.70;;;1.80;;
16593;SDS011;8410;52.532;13.336;2023-08-31T09:31:19;4.50;;;1.90;;
16593;SDS011;8410;52.532;13.336;2023-08-31T09:33:51;5.40;;;2.03;;
16593;SDS011;8410;52.532;13.336;2023-08-31T09:36:20;4.07;;;2.03;;
16593;SDS011;8410;52.532;13.336;2023-08-31T09:38:48;2.90;;;1.77;;
16593;SDS011;8410;52.532;13.336;2023-08-31T09:41:17;3.60;;;1.97;;
16593;SDS011;8410;52.532;13.336;2023-08-31T09:43:44;4.43;;;1.87;;
16593;SDS011;8410;52.532;13.336;2023-08-31T09:46:12;3.67;;;2.07;;
16593;SDS011;8410;52.532;13.336;2023-08-31T09:48:40;3.85;;;1.70;;
16593;SDS011;8410;52.532;13.336;2023-08-31T09:51:10;4.27;;;1.90;;
16593;SDS011;8410;52.532;13.336;2023-08-31T09:53:38;5.10;;;1.67;;
16593;SDS011;8410;52.532;13.336;2023-08-31T09:56:08;5.30;;;1.77;;
16593;SDS011;8410;52.532;13.336;2023-08-31T09:58:41;2.95;;;2.00;;
16593;SDS011;8410;52.532;13.336;2023-08-31T10:01:10;4.20;;;1.40;;
16593;SDS011;8410;52.532;13.336;2023-08-31T10:03:54;5.03;;;1.60;;
16593;SDS011;8410;52.532;13.336;2023-08-31T10:06:22;2.50;;;1.27;;
16593;SDS011;8410;52.532;13.336;2023-08-31T10:08:49;3.70;;;1.53;;
16593;SDS011;8410;52.532;13.336;2023-08-31T10:11:17;3.83;;;1.30;;
16593;SDS011;8410;52.532;13.336;2023-08-31T10:13:47;3.00;;;1.27;;
16593;SDS011;8410;52.532;13.336;2023-08-31T10:16:16;3.55;;;1.30;;
16593;SDS011;8410;52.532;13.336;2023-08-31T10:18:45;2.43;;;1.50;;
16593;SDS011;8410;52.532;13.336;2023-08-31T10:21:16;5.13;;;1.30;;
16593;SDS011;8410;52.532;13.336;2023-08-31T10:23:44;2.77;;;1.20;;
16593;SDS011;8410;52.532;13.336;2023-08-31T10:26:11;3.53;;;1.27;;
16593;SDS011;8410;52.532;13.336;2023-08-31T10:28:40;3.43;;;1.60;;
16593;SDS011;8410;52.532;13.336;2023-08-31T10:31:10;9.80;;;2.47;;
16593;SDS011;8410;52.532;13.336;2023-08-31T10:33:43;4.97;;;1.43;;
16593;SDS011;8410;52.532;13.336;2023-08-31T10:36:12;3.47;;;1.40;;
16593;SDS011;8410;52.532;13.336;2023-08-31T10:38:41;3.33;;;1.53;;
16593;SDS011;8410;52.532;13.336;2023-08-31T10:41:18;21.50;;;19.20;;
16593;SDS011;8410;52.532;13.336;2023-08-31T10:43:47;4.73;;;1.70;;
16593;SDS011;8410;52.532;13.336;2023-08-31T10:46:19;3.63;;;1.90;;
16593;SDS011;8410;52.532;13.336;2023-08-31T10:48:52;2.10;;;1.90;;
16593;SDS011;8410;52.532;13.336;2023-08-31T10:51:21;3.27;;;2.80;;
16593;SDS011;8410;52.532;13.336;2023-08-31T10:53:50;8.87;;;7.13;;
16593;SDS011;8410;52.532;13.336;2023-08-31T10:56:19;13.87;;;12.57;;
16593;SDS011;8410;52.532;13.336;2023-08-31T10:58:56;6.03;;;4.70;;
16593;SDS011;8410;52.532;13.336;2023-08-31T11:04:24;6.20;;;1.90;;
16593;SDS011;8410;52.532;13.336;2023-08-31T11:09:40;3.60;;;2.27;;
16593;SDS011;8410;52.532;13.336;2023-08-31T11:12:09;4.67;;;2.10;;
16593;SDS011;8410;52.532;13.336;2023-08-31T11:14:36;2.83;;;2.30;;
16593;SDS011;8410;52.532;13.336;2023-08-31T11:17:05;4.33;;;2.57;;
16593;SDS011;8410;52.532;13.336;2023-08-31T11:19:33;3.30;;;1.90;;
16593;SDS011;8410;52.532;13.336;2023-08-31T11:22:02;3.47;;;2.30;;
16593;SDS011;8410;52.532;13.336;2023-08-31T11:24:31;2.90;;;1.90;;
16593;SDS011;8410;52.532;13.336;2023-08-31T11:26:59;1.97;;;1.50;;
16593;SDS011;8410;52.532;13.336;2023-08-31T11:29:29;3.87;;;1.93;;
16593;SDS011;8410;52.532;13.336;2023-08-31T11:31:57;3.67;;;2.10;;
16593;SDS011;8410;52.532;13.336;2023-08-31T11:34:28;4.20;;;2.90;;
16593;SDS011;8410;52.532;13.336;2023-08-31T11:36:55;5.13;;;3.00;;
16593;SDS011;8410;52.532;13.336;2023-08-31T11:39:23;3.13;;;2.37;;
16593;SDS011;8410;52.532;13.336;2023-08-31T11:41:51;5.60;;;2.80;;
16593;SDS011;8410;52.532;13.336;2023-08-31T11:44:19;8.60;;;4.03;;
16593;SDS011;8410;52.532;13.336;2023-08-31T11:46:46;6.27;;;2.97;;
16593;SDS011;8410;52.532;13.336;2023-08-31T11:49:16;3.73;;;3.07;;
16593;SDS011;8410;52.532;13.336;2023-08-31T11:51:46;3.73;;;2.77;;
16593;SDS011;8410;52.532;13.336;2023-08-31T11:54:17;6.03;;;3.00;;
16593;SDS011;8410;52.532;13.336;2023-08-31T11:56:45;5.33;;;2.40;;
16593;SDS011;8410;52.532;13.336;2023-08-31T11:59:15;3.77;;;2.93;;
16593;SDS011;8410;52.532;13.336;2023-08-31T12:01:45;4.93;;;3.10;;
16593;SDS011;8410;52.532;13.336;2023-08-31T12:04:14;3.33;;;2.20;;
16593;SDS011;8410;52.532;13.336;2023-08-31T12:06:47;4.10;;;2.70;;
16593;SDS011;8410;52.532;13.336;2023-08-31T12:09:15;3.23;;;2.83;;
16593;SDS011;8410;52.532;13.336;2023-08-31T12:11:48;4.37;;;3.70;;
16593;SDS011;8410;52.532;13.336;2023-08-31T12:14:20;3.87;;;2.60;;
16593;SDS011;8410;52.532;13.336;2023-08-31T12:16:49;3.33;;;3.03;;
16593;SDS011;8410;52.532;13.336;2023-08-31T12:19:17;3.43;;;2.90;;
16593;SDS011;8410;52.532;13.336;2023-08-31T12:21:46;4.07;;;2.90;;
16593;SDS011;8410;52.532;13.336;2023-08-31T12:24:14;4.00;;;3.13;;
16593;SDS011;8410;52.532;13.336;2023-08-31T12:26:43;5.63;;;3.30;;
16593;SDS011;8410;52.532;13.336;2023-08-31T12:29:11;3.77;;;3.23;;
16593;SDS011;8410;52.532;13.336;2023-08-31T12:31:38;5.93;;;2.77;;
16593;SDS011;8410;52.532;13.336;2023-08-31T12:34:06;4.73;;;4.00;;
16593;SDS011;8410;52.532;13.336;2023-08-31T12:36:34;4.32;;;2.90;;
16593;SDS011;8410;52.532;13.336;2023-08-31T12:39:04;3.67;;;3.37;;
16593;SDS011;8410;52.532;13.336;2023-08-31T12:41:33;4.97;;;3.17;;
16593;SDS011;8410;52.532;13.336;2023-08-31T12:44:00;4.10;;;3.00;;
16593;SDS011;8410;52.532;13.336;2023-08-31T12:46:29;5.05;;;3.80;;
16593;SDS011;8410;52.532;13.336;2023-08-31T12:48:56;3.28;;;3.00;;
16593;SDS011;8410;52.532;13.336;2023-08-31T12:51:24;5.40;;;2.88;;
16593;SDS011;8410;52.532;13.336;2023-08-31T12:53:52;2.50;;;2.30;;
16593;SDS011;8410;52.532;13.336;2023-08-31T12:56:21;2.67;;;1.90;;
16593;SDS011;8410;52.532;13.336;2023-08-31T12:58:49;3.33;;;2.33;;
16593;SDS011;8410;52.532;13.336;2023-08-31T13:01:17;3.85;;;2.58;;
16593;SDS011;8410;52.532;13.336;2023-08-31T13:03:45;3.58;;;2.28;;
16593;SDS011;8410;52.532;13.336;2023-08-31T13:06:13;5.45;;;2.47;;
16593;SDS011;8410;52.532;13.336;2023-08-31T13:08:42;5.50;;;2.20;;
16593;SDS011;8410;52.532;13.336;2023-08-31T13:11:10;3.58;;;2.15;;
16593;SDS011;8410;52.532;13.336;2023-08-31T13:13:40;1.67;;;1.48;;
16593;SDS011;8410;52.532;13.336;2023-08-31T13:16:07;2.47;;;1.90;;
16593;SDS011;8410;52.532;13.336;2023-08-31T13:18:36;1.83;;;1.60;;
16593;SDS011;8410;52.532;13.336;2023-08-31T13:21:03;2.95;;;1.55;;
16593;SDS011;8410;52.532;13.336;2023-08-31T13:23:31;1.88;;;1.50;;
16593;SDS011;8410;52.532;13.336;2023-08-31T13:25:58;3.58;;;2.28;;
16593;SDS011;8410;52.532;13.336;2023-08-31T13:28:26;2.88;;;1.52;;
16593;SDS011;8410;52.532;13.336;2023-08-31T13:30:58;3.03;;;2.28;;
16593;SDS011;8410;52.532;13.336;2023-08-31T13:33:27;2.20;;;2.00;;
16593;SDS011;8410;52.532;13.336;2023-08-31T13:35:56;2.55;;;2.35;;
16593;SDS011;8410;52.532;13.336;2023-08-31T13:38:24;3.58;;;1.83;;
16593;SDS011;8410;52.532;13.336;2023-08-31T13:40:53;2.20;;;2.00;;
16593;SDS011;8410;52.532;13.336;2023-08-31T13:43:22;3.13;;;2.28;;
16593;SDS011;8410;52.532;13.336;2023-08-31T13:45:50;3.40;;;2.50;;
16593;SDS011;8410;52.532;13.336;2023-08-31T13:48:19;3.13;;;1.98;;
16593;SDS011;8410;52.532;13.336;2023-08-31T13:50:48;1.30;;;1.20;;
16593;SDS011;8410;52.532;13.336;2023-08-31T13:53:16;3.45;;;1.80;;
16593;SDS011;8410;52.532;13.336;2023-08-31T13:55:44;2.58;;;2.15;;
16593;SDS011;8410;52.532;13.336;2023-08-31T13:58:11;2.03;;;1.30;;
16593;SDS011;8410;52.532;13.336;2023-08-31T14:00:40;1.88;;;1.33;;
16593;SDS011;8410;52.532;13.336;2023-08-31T14:03:08;2.00;;;1.48;;
16593;SDS011;8410;52.532;13.336;2023-08-31T14:05:37;3.05;;;1.40;;
16593;SDS011;8410;52.532;13.336;2023-08-31T14:08:05;2.00;;;1.80;;
16593;SDS011;8410;52.532;13.336;2023-08-31T14:10:32;2.22;;;1.70;;
16593;SDS011;8410;52.532;13.336;2023-08-31T14:13:00;2.53;;;1.70;;
16593;SDS011;8410;52.532;13.336;2023-08-31T14:15:28;2.70;;;1.58;;
16593;SDS011;8410;52.532;13.336;2023-08-31T14:17:55;1.90;;;1.70;;
16593;SDS011;8410;52.532;13.336;2023-08-31T14:20:23;3.00;;;2.40;;
16593;SDS011;8410;52.532;13.336;2023-08-31T14:22:52;2.00;;;1.60;;
16593;SDS011;8410;52.532;13.336;2023-08-31T14:25:19;1.98;;;1.70;;
16593;SDS011;8410;52.532;13.336;2023-08-31T14:27:50;1.83;;;1.45;;
16593;SDS011;8410;52.532;13.336;2023-08-31T14:30:17;1.35;;;1.00;;
16593;SDS011;8410;52.532;13.336;2023-08-31T14:32:44;1.97;;;1.20;;
16593;SDS011;8410;52.532;13.336;2023-08-31T14:35:12;1.48;;;1.00;;
16593;SDS011;8410;52.532;13.336;2023-08-31T14:37:39;1.70;;;0.93;;
16593;SDS011;8410;52.532;13.336;2023-08-31T14:40:11;1.47;;;1.27;;
16593;SDS011;8410;52.532;13.336;2023-08-31T14:42:38;0.80;;;0.70;;
16593;SDS011;8410;52.532;13.336;2023-08-31T14:45:06;1.17;;;0.83;;
16593;SDS011;8410;52.532;13.336;2023-08-31T14:47:34;1.00;;;0.80;;
16593;SDS011;8410;52.532;13.336;2023-08-31T14:50:02;3.90;;;0.90;;
16593;SDS011;8410;52.532;13.336;2023-08-31T14:52:31;2.10;;;0.87;;
16593;SDS011;8410;52.532;13.336;2023-08-31T14:54:59;1.63;;;1.10;;
16593;SDS011;8410;52.532;13.336;2023-08-31T14:57:28;1.60;;;0.90;;
16593;SDS011;8410;52.532;13.336;2023-08-31T14:59:55;1.67;;;1.00;;
16593;SDS011;8410;52.532;13.336;2023-08-31T15:02:28;2.10;;;1.17;;
16593;SDS011;8410;52.532;13.336;2023-08-31T15:04:56;1.30;;;0.90;;